sensor_id;sensor_type;location;lat;lon;timestamp;temperature;humidity
8408;DHT22;4241;48.452;9.216;2023-05-16T00:00:17;10.90;99.90
8408;DHT22;4241;48.452;9.216;2023-05-16T00:02:44;12.80;99.90
8408;DHT22;4241;48.452;9.216;2023-05-16T00:05:11;10.80;99.90
8408;DHT22;4241;48.452;9.216;2023-05-16T00:07:41;10.90;99.90
8408;DHT22;4241;48.452;9.216;2023-05-16T00:10:09;10.70;99.90
8408;DHT22;4241;48.452;9.216;2023-05-16T00:15:06;10.80;99.90
8408;DHT22;4241;48.452;9.216;2023-05-16T00:17:37;10.60;99.90
8408;DHT22;4241;48.452;9.216;2023-05-16T00:20:05;10.60;99.90
8408;DHT22;4241;48.452;9.216;2023-05-16T00:22:36;10.80;99.90
8408;DHT22;4241;48.452;9.216;2023-05-16T00:25:03;10.70;99.90
8408;DHT22;4241;48.452;9.216;2023-05-16T00:27:32;10.80;99.90
8408;DHT22;4241;48.452;9.216;2023-05-16T00:29:59;10.90;99.90
8408;DHT22;4241;48.452;9.216;2023-05-16T00:32:27;10.70;99.90
8408;DHT22;4241;48.452;9.216;2023-05-16T00:37:21;10.60;99.90
8408;DHT22;4241;48.452;9.216;2023-05-16T00:39:48;10.70;99.90
8408;DHT22;4241;48.452;9.216;2023-05-16T00:42:17;10.70;99.90
8408;DHT22;4241;48.452;9.216;2023-05-16T00:49:40;10.60;99.90
8408;DHT22;4241;48.452;9.216;2023-05-16T00:52:07;10.60;99.90
8408;DHT22;4241;48.452;9.216;2023-05-16T00:57:02;10.60;99.90
8408;DHT22;4241;48.452;9.216;2023-05-16T00:59:30;10.50;99.90
8408;DHT22;4241;48.452;9.216;2023-05-16T01:06:54;10.50;99.90
8408;DHT22;4241;48.452;9.216;2023-05-16T01:09:21;10.50;99.90
8408;DHT22;4241;48.452;9.216;2023-05-16T01:11:51;10.60;99.90
8408;DHT22;4241;48.452;9.216;2023-05-16T01:14:28;10.40;99.90
8408;DHT22;4241;48.452;9.216;2023-05-16T01:17:01;10.40;99.90
8408;DHT22;4241;48.452;9.216;2023-05-16T01:19:46;10.40;99.90
8408;DHT22;4241;48.452;9.216;2023-05-16T01:22:28;10.30;99.90
8408;DHT22;4241;48.452;9.216;2023-05-16T01:25:04;10.30;99.90
8408;DHT22;4241;48.452;9.216;2023-05-16T01:27:34;10.40;99.90
8408;DHT22;4241;48.452;9.216;2023-05-16T01:30:12;10.40;99.90
8408;DHT22;4241;48.452;9.216;2023-05-16T01:35:10;10.50;99.90
8408;DHT22;4241;48.452;9.216;2023-05-16T01:37:43;10.60;99.90
8408;DHT22;4241;48.452;9.216;2023-05-16T01:40:15;10.80;99.90
8408;DHT22;4241;48.452;9.216;2023-05-16T01:42:45;10.50;99.90
8408;DHT22;4241;48.452;9.216;2023-05-16T01:45:19;10.60;99.90
8408;DHT22;4241;48.452;9.216;2023-05-16T01:47:51;10.60;99.90
8408;DHT22;4241;48.452;9.216;2023-05-16T01:50:25;10.70;99.90
8408;DHT22;4241;48.452;9.216;2023-05-16T01:52:57;10.60;99.90
8408;DHT22;4241;48.452;9.216;2023-05-16T01:55:31;10.60;99.90
8408;DHT22;4241;48.452;9.216;2023-05-16T01:58:03;10.70;99.90
8408;DHT22;4241;48.452;9.216;2023-05-16T02:00:30;10.70;99.90
8408;DHT22;4241;48.452;9.216;2023-05-16T02:02:57;10.70;99.90
8408;DHT22;4241;48.452;9.216;2023-05-16T02:05:24;10.70;99.90
8408;DHT22;4241;48.452;9.216;2023-05-16T02:07:51;10.60;99.90
8408;DHT22;4241;48.452;9.216;2023-05-16T02:10:18;10.70;99.90
8408;DHT22;4241;48.452;9.216;2023-05-16T02:12:45;10.70;99.90
8408;DHT22;4241;48.452;9.216;2023-05-16T02:15:13;10.80;99.90
8408;DHT22;4241;48.452;9.216;2023-05-16T02:17:40;10.80;99.90
8408;DHT22;4241;48.452;9.216;2023-05-16T02:20:08;10.80;99.90
8408;DHT22;4241;48.452;9.216;2023-05-16T02:22:35;10.80;99.90
8408;DHT22;4241;48.452;9.216;2023-05-16T02:25:04;10.90;99.90
8408;DHT22;4241;48.452;9.216;2023-05-16T02:27:31;10.90;99.90
8408;DHT22;4241;48.452;9.216;2023-05-16T02:29:58;10.90;99.90
8408;DHT22;4241;48.452;9.216;2023-05-16T02:32:26;11.00;99.90
8408;DHT22;4241;48.452;9.216;2023-05-16T02:34:53;11.00;99.90
8408;DHT22;4241;48.452;9.216;2023-05-16T02:37:20;11.00;99.90
8408;DHT22;4241;48.452;9.216;2023-05-16T02:39:47;10.90;99.90
8408;DHT22;4241;48.452;9.216;2023-05-16T02:42:13;11.00;99.90
8408;DHT22;4241;48.452;9.216;2023-05-16T02:44:40;11.00;99.90
8408;DHT22;4241;48.452;9.216;2023-05-16T02:49:36;11.10;99.90
8408;DHT22;4241;48.452;9.216;2023-05-16T02:52:03;11.10;99.90
8408;DHT22;4241;48.452;9.216;2023-05-16T02:54:30;11.00;99.90
8408;DHT22;4241;48.452;9.216;2023-05-16T02:56:56;11.10;99.90
8408;DHT22;4241;48.452;9.216;2023-05-16T02:59:23;11.00;99.90
8408;DHT22;4241;48.452;9.216;2023-05-16T03:01:50;10.90;99.90
8408;DHT22;4241;48.452;9.216;2023-05-16T03:04:17;11.00;99.90
8408;DHT22;4241;48.452;9.216;2023-05-16T03:06:45;11.00;99.90
8408;DHT22;4241;48.452;9.216;2023-05-16T03:09:12;11.00;99.90
8408;DHT22;4241;48.452;9.216;2023-05-16T03:14:06;11.00;99.90
8408;DHT22;4241;48.452;9.216;2023-05-16T03:16:33;11.20;99.90
8408;DHT22;4241;48.452;9.216;2023-05-16T03:19:01;11.00;99.90
8408;DHT22;4241;48.452;9.216;2023-05-16T03:21:28;11.10;99.90
8408;DHT22;4241;48.452;9.216;2023-05-16T03:23:57;11.00;99.90
8408;DHT22;4241;48.452;9.216;2023-05-16T03:26:24;10.90;99.90
8408;DHT22;4241;48.452;9.216;2023-05-16T03:28:50;10.90;99.90
8408;DHT22;4241;48.452;9.216;2023-05-16T03:31:17;10.80;99.90
8408;DHT22;4241;48.452;9.216;2023-05-16T03:33:44;10.90;99.90
8408;DHT22;4241;48.452;9.216;2023-05-16T03:36:11;10.90;99.90
8408;DHT22;4241;48.452;9.216;2023-05-16T03:38:38;11.00;99.90
8408;DHT22;4241;48.452;9.216;2023-05-16T03:41:06;11.10;99.90
8408;DHT22;4241;48.452;9.216;2023-05-16T03:43:33;10.90;99.90
8408;DHT22;4241;48.452;9.216;2023-05-16T03:46:00;10.90;99.90
8408;DHT22;4241;48.452;9.216;2023-05-16T03:48:27;11.10;99.90
8408;DHT22;4241;48.452;9.216;2023-05-16T03:50:54;11.00;99.90
8408;DHT22;4241;48.452;9.216;2023-05-16T03:53:20;10.90;99.90
8408;DHT22;4241;48.452;9.216;2023-05-16T03:55:47;11.00;99.90
8408;DHT22;4241;48.452;9.216;2023-05-16T03:58:15;11.00;99.90
8408;DHT22;4241;48.452;9.216;2023-05-16T04:00:42;11.00;99.90
8408;DHT22;4241;48.452;9.216;2023-05-16T04:03:11;10.90;99.90
8408;DHT22;4241;48.452;9.216;2023-05-16T04:05:37;11.00;99.90
8408;DHT22;4241;48.452;9.216;2023-05-16T04:10:31;10.90;99.90
8408;DHT22;4241;48.452;9.216;2023-05-16T04:12:58;10.90;99.90
8408;DHT22;4241;48.452;9.216;2023-05-16T04:15:26;10.90;99.90
8408;DHT22;4241;48.452;9.216;2023-05-16T04:17:53;10.90;99.90
8408;DHT22;4241;48.452;9.216;2023-05-16T04:20:20;10.90;99.90
8408;DHT22;4241;48.452;9.216;2023-05-16T04:22:47;11.00;99.90
8408;DHT22;4241;48.452;9.216;2023-05-16T04:25:14;10.90;99.90
8408;DHT22;4241;48.452;9.216;2023-05-16T04:27:41;10.90;99.90
8408;DHT22;4241;48.452;9.216;2023-05-16T04:30:09;10.80;99.90
8408;DHT22;4241;48.452;9.216;2023-05-16T04:32:38;10.90;99.90
8408;DHT22;4241;48.452;9.216;2023-05-16T04:35:05;11.00;99.90
8408;DHT22;4241;48.452;9.216;2023-05-16T04:37:33;11.00;99.90
8408;DHT22;4241;48.452;9.216;2023-05-16T04:42:28;11.00;99.90
8408;DHT22;4241;48.452;9.216;2023-05-16T04:44:55;11.00;99.90
8408;DHT22;4241;48.452;9.216;2023-05-16T04:47:22;10.90;99.90
8408;DHT22;4241;48.452;9.216;2023-05-16T04:49:50;10.90;99.90
8408;DHT22;4241;48.452;9.216;2023-05-16T04:52:17;10.80;99.90
8408;DHT22;4241;48.452;9.216;2023-05-16T04:54:44;10.80;99.90
8408;DHT22;4241;48.452;9.216;2023-05-16T04:57:11;10.80;99.90
8408;DHT22;4241;48.452;9.216;2023-05-16T04:59:38;10.70;99.90
8408;DHT22;4241;48.452;9.216;2023-05-16T05:02:05;10.70;99.90
8408;DHT22;4241;48.452;9.216;2023-05-16T05:04:32;10.80;99.90
8408;DHT22;4241;48.452;9.216;2023-05-16T05:07:00;10.90;99.90
8408;DHT22;4241;48.452;9.216;2023-05-16T05:09:27;10.90;99.90
8408;DHT22;4241;48.452;9.216;2023-05-16T05:11:53;10.80;99.90
8408;DHT22;4241;48.452;9.216;2023-05-16T05:14:20;10.20;99.90
8408;DHT22;4241;48.452;9.216;2023-05-16T05:16:47;10.70;99.90
8408;DHT22;4241;48.452;9.216;2023-05-16T05:19:14;10.70;99.90
8408;DHT22;4241;48.452;9.216;2023-05-16T05:21:41;10.80;99.90
8408;DHT22;4241;48.452;9.216;2023-05-16T05:24:09;10.80;99.90
8408;DHT22;4241;48.452;9.216;2023-05-16T05:26:36;10.80;99.90
8408;DHT22;4241;48.452;9.216;2023-05-16T05:29:02;10.80;99.90
8408;DHT22;4241;48.452;9.216;2023-05-16T05:33:58;10.90;99.90
8408;DHT22;4241;48.452;9.216;2023-05-16T05:36:25;10.80;99.90
8408;DHT22;4241;48.452;9.216;2023-05-16T05:38:51;10.80;99.90
8408;DHT22;4241;48.452;9.216;2023-05-16T05:41:20;10.90;99.90
8408;DHT22;4241;48.452;9.216;2023-05-16T05:43:47;10.90;99.90
8408;DHT22;4241;48.452;9.216;2023-05-16T05:46:14;10.90;99.90
8408;DHT22;4241;48.452;9.216;2023-05-16T05:48:41;10.90;99.90
8408;DHT22;4241;48.452;9.216;2023-05-16T05:51:08;10.90;99.90
8408;DHT22;4241;48.452;9.216;2023-05-16T05:53:35;10.90;99.90
8408;DHT22;4241;48.452;9.216;2023-05-16T05:56:01;11.00;99.90
8408;DHT22;4241;48.452;9.216;2023-05-16T05:58:29;11.00;99.90
8408;DHT22;4241;48.452;9.216;2023-05-16T06:03:23;11.00;99.90
8408;DHT22;4241;48.452;9.216;2023-05-16T06:05:50;11.20;99.90
8408;DHT22;4241;48.452;9.216;2023-05-16T06:08:17;11.10;99.90
8408;DHT22;4241;48.452;9.216;2023-05-16T06:10:44;11.20;99.90
8408;DHT22;4241;48.452;9.216;2023-05-16T06:13:11;11.10;99.90
8408;DHT22;4241;48.452;9.216;2023-05-16T06:15:39;11.10;99.90
8408;DHT22;4241;48.452;9.216;2023-05-16T06:18:05;11.00;99.90
8408;DHT22;4241;48.452;9.216;2023-05-16T06:20:32;11.20;99.90
8408;DHT22;4241;48.452;9.216;2023-05-16T06:22:59;11.10;99.90
8408;DHT22;4241;48.452;9.216;2023-05-16T06:25:26;11.10;99.90
8408;DHT22;4241;48.452;9.216;2023-05-16T06:27:53;11.10;99.90
8408;DHT22;4241;48.452;9.216;2023-05-16T06:30:20;11.20;99.90
8408;DHT22;4241;48.452;9.216;2023-05-16T06:32:48;11.00;99.90
8408;DHT22;4241;48.452;9.216;2023-05-16T06:35:15;11.00;99.90
8408;DHT22;4241;48.452;9.216;2023-05-16T06:37:42;11.00;99.90
8408;DHT22;4241;48.452;9.216;2023-05-16T06:40:10;11.10;99.90
8408;DHT22;4241;48.452;9.216;2023-05-16T06:42:37;11.10;99.90
8408;DHT22;4241;48.452;9.216;2023-05-16T06:45:04;11.10;99.90
8408;DHT22;4241;48.452;9.216;2023-05-16T06:47:32;11.10;99.90
8408;DHT22;4241;48.452;9.216;2023-05-16T06:50:00;11.10;99.90
8408;DHT22;4241;48.452;9.216;2023-05-16T06:52:27;11.20;99.90
8408;DHT22;4241;48.452;9.216;2023-05-16T06:57:21;11.20;99.90
8408;DHT22;4241;48.452;9.216;2023-05-16T06:59:47;11.20;99.90
8408;DHT22;4241;48.452;9.216;2023-05-16T07:04:41;11.20;99.90
8408;DHT22;4241;48.452;9.216;2023-05-16T07:07:09;11.20;99.90
8408;DHT22;4241;48.452;9.216;2023-05-16T07:09:36;11.20;99.90
8408;DHT22;4241;48.452;9.216;2023-05-16T07:12:04;11.30;99.90
8408;DHT22;4241;48.452;9.216;2023-05-16T07:14:31;11.30;99.90
8408;DHT22;4241;48.452;9.216;2023-05-16T07:16:58;11.20;99.90
8408;DHT22;4241;48.452;9.216;2023-05-16T07:19:24;11.20;99.90
8408;DHT22;4241;48.452;9.216;2023-05-16T07:21:51;11.30;99.90
8408;DHT22;4241;48.452;9.216;2023-05-16T07:24:19;11.30;99.90
8408;DHT22;4241;48.452;9.216;2023-05-16T07:29:13;11.10;99.90
8408;DHT22;4241;48.452;9.216;2023-05-16T07:31:40;11.40;99.90
8408;DHT22;4241;48.452;9.216;2023-05-16T07:34:08;11.30;99.90
8408;DHT22;4241;48.452;9.216;2023-05-16T07:36:35;11.30;99.90
8408;DHT22;4241;48.452;9.216;2023-05-16T07:39:02;11.40;99.90
8408;DHT22;4241;48.452;9.216;2023-05-16T07:41:30;11.50;99.90
8408;DHT22;4241;48.452;9.216;2023-05-16T07:43:57;11.30;99.90
8408;DHT22;4241;48.452;9.216;2023-05-16T07:46:24;11.20;99.90
8408;DHT22;4241;48.452;9.216;2023-05-16T07:48:51;11.30;99.90
8408;DHT22;4241;48.452;9.216;2023-05-16T07:51:18;11.40;99.90
8408;DHT22;4241;48.452;9.216;2023-05-16T07:53:44;11.20;99.90
8408;DHT22;4241;48.452;9.216;2023-05-16T07:56:11;11.30;99.90
8408;DHT22;4241;48.452;9.216;2023-05-16T07:58:40;11.30;99.90
8408;DHT22;4241;48.452;9.216;2023-05-16T08:01:07;11.20;99.90
8408;DHT22;4241;48.452;9.216;2023-05-16T08:03:34;11.20;99.90
8408;DHT22;4241;48.452;9.216;2023-05-16T08:06:01;11.30;99.90
8408;DHT22;4241;48.452;9.216;2023-05-16T08:08:28;11.30;99.90
8408;DHT22;4241;48.452;9.216;2023-05-16T08:10:57;11.40;99.90
8408;DHT22;4241;48.452;9.216;2023-05-16T08:13:24;11.40;99.90
8408;DHT22;4241;48.452;9.216;2023-05-16T08:15:52;11.40;99.90
8408;DHT22;4241;48.452;9.216;2023-05-16T08:18:18;11.50;99.90
8408;DHT22;4241;48.452;9.216;2023-05-16T08:20:45;11.30;99.90
8408;DHT22;4241;48.452;9.216;2023-05-16T08:23:13;11.20;99.90
8408;DHT22;4241;48.452;9.216;2023-05-16T08:25:40;11.30;99.90
8408;DHT22;4241;48.452;9.216;2023-05-16T08:28:07;11.20;99.90
8408;DHT22;4241;48.452;9.216;2023-05-16T08:30:33;11.20;99.90
8408;DHT22;4241;48.452;9.216;2023-05-16T08:33:02;11.30;99.90
8408;DHT22;4241;48.452;9.216;2023-05-16T08:35:29;11.30;99.90
8408;DHT22;4241;48.452;9.216;2023-05-16T08:37:56;11.30;99.90
8408;DHT22;4241;48.452;9.216;2023-05-16T08:40:25;11.20;99.90
8408;DHT22;4241;48.452;9.216;2023-05-16T08:42:52;11.20;99.90
8408;DHT22;4241;48.452;9.216;2023-05-16T08:45:19;11.20;99.90
8408;DHT22;4241;48.452;9.216;2023-05-16T08:47:49;11.20;99.90
8408;DHT22;4241;48.452;9.216;2023-05-16T08:50:17;11.40;99.90
8408;DHT22;4241;48.452;9.216;2023-05-16T08:52:46;11.50;99.90
8408;DHT22;4241;48.452;9.216;2023-05-16T08:55:18;11.20;99.90
8408;DHT22;4241;48.452;9.216;2023-05-16T08:57:47;11.20;99.90
8408;DHT22;4241;48.452;9.216;2023-05-16T09:00:16;11.10;99.90
8408;DHT22;4241;48.452;9.216;2023-05-16T09:02:44;11.20;99.90
8408;DHT22;4241;48.452;9.216;2023-05-16T09:05:13;11.30;99.90
8408;DHT22;4241;48.452;9.216;2023-05-16T09:07:41;11.20;99.90
8408;DHT22;4241;48.452;9.216;2023-05-16T09:10:09;11.10;99.90
8408;DHT22;4241;48.452;9.216;2023-05-16T09:12:37;11.20;99.90
8408;DHT22;4241;48.452;9.216;2023-05-16T09:15:06;11.20;99.90
8408;DHT22;4241;48.452;9.216;2023-05-16T09:17:35;11.10;99.90
8408;DHT22;4241;48.452;9.216;2023-05-16T09:20:10;11.10;99.90
8408;DHT22;4241;48.452;9.216;2023-05-16T09:22:38;11.20;99.90
8408;DHT22;4241;48.452;9.216;2023-05-16T09:25:07;11.30;99.90
8408;DHT22;4241;48.452;9.216;2023-05-16T09:27:34;11.10;99.90
8408;DHT22;4241;48.452;9.216;2023-05-16T09:30:01;11.10;99.90
8408;DHT22;4241;48.452;9.216;2023-05-16T09:32:28;11.20;99.90
8408;DHT22;4241;48.452;9.216;2023-05-16T09:34:56;11.40;99.90
8408;DHT22;4241;48.452;9.216;2023-05-16T09:37:24;11.30;99.90
8408;DHT22;4241;48.452;9.216;2023-05-16T09:39:52;11.20;99.90
8408;DHT22;4241;48.452;9.216;2023-05-16T09:42:21;11.20;99.90
8408;DHT22;4241;48.452;9.216;2023-05-16T09:44:49;11.20;99.90
8408;DHT22;4241;48.452;9.216;2023-05-16T09:47:17;11.10;99.90
8408;DHT22;4241;48.452;9.216;2023-05-16T09:49:45;11.20;99.90
8408;DHT22;4241;48.452;9.216;2023-05-16T09:52:13;11.10;99.90
8408;DHT22;4241;48.452;9.216;2023-05-16T09:54:40;11.10;99.90
8408;DHT22;4241;48.452;9.216;2023-05-16T09:57:07;11.10;99.90
8408;DHT22;4241;48.452;9.216;2023-05-16T09:59:37;11.00;99.90
8408;DHT22;4241;48.452;9.216;2023-05-16T10:02:05;11.00;99.90
8408;DHT22;4241;48.452;9.216;2023-05-16T10:04:33;11.10;99.90
8408;DHT22;4241;48.452;9.216;2023-05-16T10:07:01;11.10;99.90
8408;DHT22;4241;48.452;9.216;2023-05-16T10:09:31;11.10;99.90
8408;DHT22;4241;48.452;9.216;2023-05-16T10:12:00;11.10;99.90
8408;DHT22;4241;48.452;9.216;2023-05-16T10:14:29;10.90;99.90
8408;DHT22;4241;48.452;9.216;2023-05-16T10:17:00;11.20;99.90
8408;DHT22;4241;48.452;9.216;2023-05-16T10:19:29;11.10;99.90
8408;DHT22;4241;48.452;9.216;2023-05-16T10:21:59;11.10;99.90
8408;DHT22;4241;48.452;9.216;2023-05-16T10:24:36;11.10;99.90
8408;DHT22;4241;48.452;9.216;2023-05-16T10:27:04;11.00;99.90
8408;DHT22;4241;48.452;9.216;2023-05-16T10:29:31;11.00;99.90
8408;DHT22;4241;48.452;9.216;2023-05-16T10:32:00;10.90;99.90
8408;DHT22;4241;48.452;9.216;2023-05-16T10:34:26;11.10;99.90
8408;DHT22;4241;48.452;9.216;2023-05-16T10:36:54;11.00;99.90
8408;DHT22;4241;48.452;9.216;2023-05-16T10:39:22;11.00;99.90
8408;DHT22;4241;48.452;9.216;2023-05-16T10:41:49;11.00;99.90
8408;DHT22;4241;48.452;9.216;2023-05-16T10:44:16;11.20;99.90
8408;DHT22;4241;48.452;9.216;2023-05-16T10:46:43;11.10;99.90
8408;DHT22;4241;48.452;9.216;2023-05-16T10:49:24;11.00;99.90
8408;DHT22;4241;48.452;9.216;2023-05-16T10:52:06;11.10;99.90
8408;DHT22;4241;48.452;9.216;2023-05-16T10:54:34;11.10;99.90
8408;DHT22;4241;48.452;9.216;2023-05-16T10:57:08;11.00;99.90
8408;DHT22;4241;48.452;9.216;2023-05-16T10:59:43;11.10;99.90
8408;DHT22;4241;48.452;9.216;2023-05-16T11:02:23;11.10;99.90
8408;DHT22;4241;48.452;9.216;2023-05-16T11:04:54;11.20;99.90
8408;DHT22;4241;48.452;9.216;2023-05-16T11:07:23;11.10;99.90
8408;DHT22;4241;48.452;9.216;2023-05-16T11:10:02;11.10;99.90
8408;DHT22;4241;48.452;9.216;2023-05-16T11:12:44;11.10;99.90
8408;DHT22;4241;48.452;9.216;2023-05-16T11:15:27;11.10;99.90
8408;DHT22;4241;48.452;9.216;2023-05-16T11:18:04;11.20;99.90
8408;DHT22;4241;48.452;9.216;2023-05-16T11:20:34;11.20;99.90
8408;DHT22;4241;48.452;9.216;2023-05-16T11:23:21;11.20;99.90
8408;DHT22;4241;48.452;9.216;2023-05-16T11:25:50;11.20;99.90
8408;DHT22;4241;48.452;9.216;2023-05-16T11:28:19;11.00;99.90
8408;DHT22;4241;48.452;9.216;2023-05-16T11:30:48;11.20;99.90
8408;DHT22;4241;48.452;9.216;2023-05-16T11:33:15;11.30;99.90
8408;DHT22;4241;48.452;9.216;2023-05-16T11:35:59;11.30;99.90
8408;DHT22;4241;48.452;9.216;2023-05-16T11:38:29;11.20;99.90
8408;DHT22;4241;48.452;9.216;2023-05-16T11:41:02;11.20;99.90
8408;DHT22;4241;48.452;9.216;2023-05-16T11:43:36;11.20;99.90
8408;DHT22;4241;48.452;9.216;2023-05-16T11:46:03;11.30;99.90
8408;DHT22;4241;48.452;9.216;2023-05-16T11:48:30;11.40;99.90
8408;DHT22;4241;48.452;9.216;2023-05-16T11:50:59;11.40;99.90
8408;DHT22;4241;48.452;9.216;2023-05-16T11:53:26;11.60;99.90
8408;DHT22;4241;48.452;9.216;2023-05-16T11:55:54;11.60;99.90
8408;DHT22;4241;48.452;9.216;2023-05-16T11:58:24;11.60;99.90
8408;DHT22;4241;48.452;9.216;2023-05-16T12:00:52;11.70;99.90
8408;DHT22;4241;48.452;9.216;2023-05-16T12:03:19;11.70;99.90
8408;DHT22;4241;48.452;9.216;2023-05-16T12:05:51;11.70;99.90
8408;DHT22;4241;48.452;9.216;2023-05-16T12:08:20;11.70;99.90
8408;DHT22;4241;48.452;9.216;2023-05-16T12:10:50;11.70;99.90
8408;DHT22;4241;48.452;9.216;2023-05-16T12:13:18;11.60;99.90
8408;DHT22;4241;48.452;9.216;2023-05-16T12:15:46;11.90;99.90
8408;DHT22;4241;48.452;9.216;2023-05-16T12:18:13;11.90;99.90
8408;DHT22;4241;48.452;9.216;2023-05-16T12:20:42;11.90;99.90
8408;DHT22;4241;48.452;9.216;2023-05-16T12:23:10;11.90;99.90
8408;DHT22;4241;48.452;9.216;2023-05-16T12:25:43;11.90;99.90
8408;DHT22;4241;48.452;9.216;2023-05-16T12:28:11;11.90;99.90
8408;DHT22;4241;48.452;9.216;2023-05-16T12:30:40;12.00;99.90
8408;DHT22;4241;48.452;9.216;2023-05-16T12:33:08;12.00;99.90
8408;DHT22;4241;48.452;9.216;2023-05-16T12:35:38;11.80;99.90
8408;DHT22;4241;48.452;9.216;2023-05-16T12:38:06;11.90;99.90
8408;DHT22;4241;48.452;9.216;2023-05-16T12:40:35;11.90;99.90
8408;DHT22;4241;48.452;9.216;2023-05-16T12:43:12;12.00;99.90
8408;DHT22;4241;48.452;9.216;2023-05-16T12:45:38;11.80;99.90
8408;DHT22;4241;48.452;9.216;2023-05-16T12:48:11;11.60;99.90
8408;DHT22;4241;48.452;9.216;2023-05-16T12:50:38;11.70;99.90
8408;DHT22;4241;48.452;9.216;2023-05-16T12:53:09;11.70;99.90
8408;DHT22;4241;48.452;9.216;2023-05-16T12:55:36;11.60;99.90
8408;DHT22;4241;48.452;9.216;2023-05-16T12:58:05;11.50;99.90
8408;DHT22;4241;48.452;9.216;2023-05-16T13:00:31;11.60;99.90
8408;DHT22;4241;48.452;9.216;2023-05-16T13:02:58;11.60;99.90
8408;DHT22;4241;48.452;9.216;2023-05-16T13:07:52;11.50;99.90
8408;DHT22;4241;48.452;9.216;2023-05-16T13:10:19;11.50;99.90
8408;DHT22;4241;48.452;9.216;2023-05-16T13:12:46;11.50;99.90
8408;DHT22;4241;48.452;9.216;2023-05-16T13:15:14;11.30;99.90
8408;DHT22;4241;48.452;9.216;2023-05-16T13:17:41;11.40;99.90
8408;DHT22;4241;48.452;9.216;2023-05-16T13:20:09;11.40;99.90
8408;DHT22;4241;48.452;9.216;2023-05-16T13:22:39;11.30;99.90
8408;DHT22;4241;48.452;9.216;2023-05-16T13:25:07;11.20;99.90
8408;DHT22;4241;48.452;9.216;2023-05-16T13:27:35;11.30;99.90
8408;DHT22;4241;48.452;9.216;2023-05-16T13:30:02;11.30;99.90
8408;DHT22;4241;48.452;9.216;2023-05-16T13:32:30;11.20;99.90
8408;DHT22;4241;48.452;9.216;2023-05-16T13:34:57;11.10;99.90
8408;DHT22;4241;48.452;9.216;2023-05-16T13:37:24;11.10;99.90
8408;DHT22;4241;48.452;9.216;2023-05-16T13:39:51;11.10;99.90
8408;DHT22;4241;48.452;9.216;2023-05-16T13:42:19;11.00;99.90
8408;DHT22;4241;48.452;9.216;2023-05-16T13:44:46;11.10;99.90
8408;DHT22;4241;48.452;9.216;2023-05-16T13:47:12;11.10;99.90
8408;DHT22;4241;48.452;9.216;2023-05-16T13:49:41;11.30;99.90
8408;DHT22;4241;48.452;9.216;2023-05-16T13:52:08;11.20;99.90
8408;DHT22;4241;48.452;9.216;2023-05-16T13:54:35;11.20;99.90
8408;DHT22;4241;48.452;9.216;2023-05-16T13:57:02;11.20;99.90
8408;DHT22;4241;48.452;9.216;2023-05-16T13:59:29;11.30;99.90
8408;DHT22;4241;48.452;9.216;2023-05-16T14:01:55;11.10;99.90
8408;DHT22;4241;48.452;9.216;2023-05-16T14:04:22;11.10;99.90
8408;DHT22;4241;48.452;9.216;2023-05-16T14:06:51;11.20;99.90
8408;DHT22;4241;48.452;9.216;2023-05-16T14:09:19;11.20;99.90
8408;DHT22;4241;48.452;9.216;2023-05-16T14:19:10;11.00;99.90
8408;DHT22;4241;48.452;9.216;2023-05-16T14:21:37;10.90;99.90
8408;DHT22;4241;48.452;9.216;2023-05-16T14:24:06;10.90;99.90
8408;DHT22;4241;48.452;9.216;2023-05-16T14:26:33;10.90;99.90
8408;DHT22;4241;48.452;9.216;2023-05-16T14:29:00;10.80;99.90
8408;DHT22;4241;48.452;9.216;2023-05-16T14:31:27;10.70;99.90
8408;DHT22;4241;48.452;9.216;2023-05-16T14:36:21;10.70;99.90
8408;DHT22;4241;48.452;9.216;2023-05-16T14:38:47;10.50;99.90
8408;DHT22;4241;48.452;9.216;2023-05-16T14:41:16;10.80;99.90
8408;DHT22;4241;48.452;9.216;2023-05-16T14:43:43;10.60;99.90
8408;DHT22;4241;48.452;9.216;2023-05-16T14:46:10;10.70;99.90
8408;DHT22;4241;48.452;9.216;2023-05-16T14:51:05;10.70;99.90
8408;DHT22;4241;48.452;9.216;2023-05-16T14:53:32;10.60;99.90
8408;DHT22;4241;48.452;9.216;2023-05-16T14:55:59;10.70;99.90
8408;DHT22;4241;48.452;9.216;2023-05-16T14:58:28;10.20;99.90
8408;DHT22;4241;48.452;9.216;2023-05-16T15:00:55;10.70;99.90
8408;DHT22;4241;48.452;9.216;2023-05-16T15:03:22;10.70;99.90
8408;DHT22;4241;48.452;9.216;2023-05-16T15:05:49;10.60;99.90
8408;DHT22;4241;48.452;9.216;2023-05-16T15:08:17;10.50;99.90
8408;DHT22;4241;48.452;9.216;2023-05-16T15:13:11;10.60;99.90
8408;DHT22;4241;48.452;9.216;2023-05-16T15:15:39;10.30;99.90
8408;DHT22;4241;48.452;9.216;2023-05-16T15:20:35;10.50;99.90
8408;DHT22;4241;48.452;9.216;2023-05-16T15:25:29;10.60;99.90
8408;DHT22;4241;48.452;9.216;2023-05-16T15:27:56;10.50;99.90
8408;DHT22;4241;48.452;9.216;2023-05-16T15:30:22;10.70;99.90
8408;DHT22;4241;48.452;9.216;2023-05-16T15:32:51;10.50;99.90
8408;DHT22;4241;48.452;9.216;2023-05-16T15:35:17;10.60;99.90
8408;DHT22;4241;48.452;9.216;2023-05-16T15:37:44;10.70;99.90
8408;DHT22;4241;48.452;9.216;2023-05-16T15:40:12;10.70;99.90
8408;DHT22;4241;48.452;9.216;2023-05-16T15:42:39;10.70;99.90
8408;DHT22;4241;48.452;9.216;2023-05-16T15:45:09;10.70;99.90
8408;DHT22;4241;48.452;9.216;2023-05-16T15:50:05;10.70;99.90
8408;DHT22;4241;48.452;9.216;2023-05-16T15:52:32;10.60;99.90
8408;DHT22;4241;48.452;9.216;2023-05-16T15:55:00;10.60;99.90
8408;DHT22;4241;48.452;9.216;2023-05-16T15:59:57;10.60;99.90
8408;DHT22;4241;48.452;9.216;2023-05-16T16:02:24;10.50;99.90
8408;DHT22;4241;48.452;9.216;2023-05-16T16:04:50;10.40;99.90
8408;DHT22;4241;48.452;9.216;2023-05-16T16:07:19;10.50;99.90
8408;DHT22;4241;48.452;9.216;2023-05-16T16:12:12;10.50;99.90
8408;DHT22;4241;48.452;9.216;2023-05-16T16:17:07;10.50;99.90
8408;DHT22;4241;48.452;9.216;2023-05-16T16:19:34;10.50;99.90
8408;DHT22;4241;48.452;9.216;2023-05-16T16:22:01;10.40;99.90
8408;DHT22;4241;48.452;9.216;2023-05-16T16:24:29;10.60;99.90
8408;DHT22;4241;48.452;9.216;2023-05-16T16:26:56;10.40;99.90
8408;DHT22;4241;48.452;9.216;2023-05-16T16:29:22;10.60;99.90
8408;DHT22;4241;48.452;9.216;2023-05-16T16:31:50;10.50;99.90
8408;DHT22;4241;48.452;9.216;2023-05-16T16:34:17;10.80;99.90
8408;DHT22;4241;48.452;9.216;2023-05-16T16:36:44;10.40;99.90
8408;DHT22;4241;48.452;9.216;2023-05-16T16:39:11;10.30;99.90
8408;DHT22;4241;48.452;9.216;2023-05-16T16:41:39;10.40;99.90
8408;DHT22;4241;48.452;9.216;2023-05-16T16:44:06;10.50;99.90
8408;DHT22;4241;48.452;9.216;2023-05-16T16:46:32;10.40;99.90
8408;DHT22;4241;48.452;9.216;2023-05-16T16:48:59;10.40;99.90
8408;DHT22;4241;48.452;9.216;2023-05-16T16:51:27;10.30;99.90
8408;DHT22;4241;48.452;9.216;2023-05-16T16:56:23;10.30;99.90
8408;DHT22;4241;48.452;9.216;2023-05-16T16:58:53;10.30;99.90
8408;DHT22;4241;48.452;9.216;2023-05-16T17:01:20;10.30;99.90
8408;DHT22;4241;48.452;9.216;2023-05-16T17:03:47;10.40;99.90
8408;DHT22;4241;48.452;9.216;2023-05-16T17:08:41;10.10;99.90
8408;DHT22;4241;48.452;9.216;2023-05-16T17:13:35;10.20;99.90
8408;DHT22;4241;48.452;9.216;2023-05-16T17:16:04;10.30;99.90
8408;DHT22;4241;48.452;9.216;2023-05-16T17:18:31;10.20;99.90
8408;DHT22;4241;48.452;9.216;2023-05-16T17:20:58;10.30;99.90
8408;DHT22;4241;48.452;9.216;2023-05-16T17:23:25;10.40;99.90
8408;DHT22;4241;48.452;9.216;2023-05-16T17:25:51;10.40;99.90
8408;DHT22;4241;48.452;9.216;2023-05-16T17:28:18;10.40;99.90